createdAt,value
2022-12-11T00:00:48.283Z,0.00
2022-12-11T00:01:48.271Z,0.00
2022-12-11T00:02:48.295Z,0.00
2022-12-11T00:03:48.219Z,0.00
2022-12-11T00:04:48.223Z,0.00
2022-12-11T00:05:48.191Z,0.00
2022-12-11T00:06:48.210Z,0.00
2022-12-11T00:07:48.240Z,0.00
2022-12-11T00:08:48.179Z,0.00
2022-12-11T00:09:48.179Z,0.00
2022-12-11T00:10:48.178Z,0.00
2022-12-11T00:11:48.139Z,0.00
2022-12-11T00:12:48.130Z,0.00
2022-12-11T00:13:48.114Z,0.00
2022-12-11T00:14:48.111Z,0.00
2022-12-11T00:15:48.099Z,0.00
2022-12-11T00:16:48.121Z,0.00
2022-12-11T00:17:48.058Z,0.00
2022-12-11T00:18:48.083Z,0.00
2022-12-11T00:19:48.039Z,0.00
2022-12-11T00:20:48.043Z,0.00
2022-12-11T00:21:48.050Z,0.00
2022-12-11T00:22:48.030Z,0.00
2022-12-11T00:23:48.001Z,0.00
2022-12-11T00:24:48.023Z,0.00
2022-12-11T00:25:47.971Z,0.00
2022-12-11T00:26:47.971Z,0.00
2022-12-11T00:27:47.952Z,0.00
2022-12-11T00:28:47.956Z,0.00
2022-12-11T00:29:47.971Z,0.00
2022-12-11T00:30:47.933Z,0.00
2022-12-11T00:31:47.965Z,0.00
2022-12-11T00:32:47.899Z,0.00
2022-12-11T00:33:47.886Z,0.00
2022-12-11T00:34:47.891Z,0.00
2022-12-11T00:35:47.888Z,0.00
2022-12-11T00:36:47.859Z,0.00
2022-12-11T00:37:47.858Z,0.00
2022-12-11T00:38:47.840Z,0.00
2022-12-11T00:39:47.820Z,0.00
2022-12-11T00:40:47.871Z,0.00
2022-12-11T00:41:47.788Z,0.00
2022-12-11T00:42:47.799Z,0.00
2022-12-11T00:43:47.846Z,0.00
2022-12-11T00:44:47.798Z,0.00
2022-12-11T00:45:47.807Z,0.00
2022-12-11T00:46:47.767Z,0.00
2022-12-11T00:47:47.727Z,0.00
2022-12-11T00:48:47.747Z,0.00
2022-12-11T00:49:50.021Z,0.00
2022-12-11T00:50:47.731Z,0.00
2022-12-11T00:51:47.720Z,0.00
2022-12-11T00:52:47.684Z,0.00
2022-12-11T00:53:47.669Z,0.00
2022-12-11T00:54:47.666Z,0.00
2022-12-11T00:55:47.655Z,0.00
2022-12-11T00:56:47.647Z,0.00
2022-12-11T00:57:47.731Z,0.00
2022-12-11T00:58:47.653Z,0.00
2022-12-11T00:59:47.608Z,0.00
2022-12-11T01:00:47.598Z,0.00
2022-12-11T01:01:47.645Z,0.00
2022-12-11T01:02:47.638Z,0.00
2022-12-11T01:03:47.548Z,0.00
2022-12-11T01:04:47.556Z,0.00
2022-12-11T01:05:47.547Z,0.00
2022-12-11T01:06:47.528Z,0.00
2022-12-11T01:07:47.568Z,0.00
2022-12-11T01:08:47.516Z,0.00
2022-12-11T01:09:47.505Z,0.00
2022-12-11T01:10:47.614Z,0.00
2022-12-11T01:11:47.516Z,0.00
2022-12-11T01:12:47.499Z,0.00
2022-12-11T01:13:47.445Z,0.00
2022-12-11T01:14:47.437Z,0.00
2022-12-11T01:15:47.448Z,0.00
2022-12-11T01:16:47.479Z,0.00
2022-12-11T01:17:47.396Z,0.00
2022-12-11T01:18:47.423Z,0.00
2022-12-11T01:19:47.375Z,0.00
2022-12-11T01:20:47.370Z,0.00
2022-12-11T01:21:47.404Z,0.00
2022-12-11T01:22:47.359Z,0.00
2022-12-11T01:23:47.347Z,0.00
2022-12-11T01:24:47.344Z,0.00
2022-12-11T01:25:47.327Z,0.00
2022-12-11T01:26:47.352Z,0.00
2022-12-11T01:27:47.296Z,0.00
2022-12-11T01:28:47.335Z,0.00
2022-12-11T01:29:47.264Z,0.00
2022-12-11T01:30:47.323Z,0.00
2022-12-11T01:31:47.245Z,0.00
2022-12-11T01:32:47.264Z,0.00
2022-12-11T01:33:47.278Z,0.00
2022-12-11T01:34:47.216Z,0.00
2022-12-11T01:35:47.196Z,0.00
2022-12-11T01:36:47.203Z,0.00
2022-12-11T01:37:47.168Z,0.00
2022-12-11T01:38:47.163Z,0.00
2022-12-11T01:39:47.174Z,0.00
2022-12-11T01:40:52.405Z,0.00
2022-12-11T01:41:47.145Z,0.00
2022-12-11T01:42:47.123Z,0.00
2022-12-11T01:43:47.133Z,0.00
2022-12-11T01:44:47.106Z,0.00
2022-12-11T01:45:47.141Z,0.00
2022-12-11T01:46:47.102Z,0.00
2022-12-11T01:47:47.073Z,0.00
2022-12-11T01:48:47.072Z,0.00
2022-12-11T01:49:47.064Z,0.00
2022-12-11T01:50:47.055Z,0.00
2022-12-11T01:51:47.033Z,0.00
2022-12-11T01:52:47.012Z,0.00
2022-12-11T01:53:47.009Z,0.00
2022-12-11T01:54:47.016Z,0.00
2022-12-11T01:55:47.011Z,0.00
2022-12-11T01:56:46.974Z,0.00
2022-12-11T01:57:46.958Z,0.00
2022-12-11T01:58:46.954Z,0.00
2022-12-11T01:59:46.955Z,0.00
2022-12-11T02:00:46.936Z,0.00
2022-12-11T02:01:46.906Z,0.00
2022-12-11T02:02:46.962Z,0.00
2022-12-11T02:03:46.937Z,0.00
2022-12-11T02:04:46.885Z,0.00
2022-12-11T02:05:46.886Z,0.00
2022-12-11T02:06:46.899Z,0.00
2022-12-11T02:07:46.898Z,0.00
2022-12-11T02:08:46.841Z,0.00
2022-12-11T02:09:46.825Z,0.00
2022-12-11T02:10:46.834Z,0.00
2022-12-11T02:11:46.795Z,0.00
2022-12-11T02:12:46.801Z,0.00
2022-12-11T02:13:46.781Z,0.00
2022-12-11T02:14:46.773Z,0.00
2022-12-11T02:15:46.767Z,0.00
2022-12-11T02:16:46.811Z,0.00
2022-12-11T02:17:46.793Z,0.00
2022-12-11T02:18:46.721Z,0.00
2022-12-11T02:19:46.712Z,0.00
2022-12-11T02:20:46.721Z,0.00
2022-12-11T02:21:46.682Z,0.00
2022-12-11T02:22:46.693Z,0.00
2022-12-11T02:23:46.677Z,0.00
2022-12-11T02:24:46.662Z,0.00
2022-12-11T02:25:46.769Z,0.00
2022-12-11T02:26:46.641Z,0.00
2022-12-11T02:27:46.620Z,0.00
2022-12-11T02:28:46.622Z,0.00
2022-12-11T02:29:46.598Z,0.00
2022-12-11T02:30:46.601Z,0.00
2022-12-11T02:31:46.675Z,0.00
2022-12-11T02:32:46.567Z,0.00
2022-12-11T02:33:46.581Z,0.00
2022-12-11T02:34:46.561Z,0.00
2022-12-11T02:35:46.541Z,0.00
2022-12-11T02:36:46.521Z,0.00
2022-12-11T02:37:46.542Z,0.00
2022-12-11T02:38:46.555Z,0.00
2022-12-11T02:39:46.503Z,0.00
2022-12-11T02:40:46.481Z,0.00
2022-12-11T02:41:46.484Z,0.00
2022-12-11T02:42:46.461Z,0.00
2022-12-11T02:43:46.471Z,0.00
2022-12-11T02:44:46.422Z,0.00
2022-12-11T02:45:46.759Z,0.00
2022-12-11T02:46:46.410Z,0.00
2022-12-11T02:47:46.404Z,0.00
2022-12-11T02:48:46.409Z,0.00
2022-12-11T02:49:46.392Z,0.00
2022-12-11T02:50:46.362Z,0.00
2022-12-11T02:51:46.361Z,0.00
2022-12-11T02:52:46.339Z,0.00
2022-12-11T02:53:46.369Z,0.00
2022-12-11T02:54:46.337Z,0.00
2022-12-11T02:55:46.323Z,0.00
2022-12-11T02:56:46.321Z,0.00
2022-12-11T02:57:46.289Z,0.00
2022-12-11T02:58:46.269Z,0.00
2022-12-11T02:59:46.270Z,0.00
2022-12-11T03:00:46.310Z,0.00
2022-12-11T03:01:46.315Z,0.00
2022-12-11T03:02:46.276Z,0.00
2022-12-11T03:03:46.258Z,0.00
2022-12-11T03:04:46.238Z,0.00
2022-12-11T03:05:46.228Z,0.00
2022-12-11T03:06:46.183Z,0.00
2022-12-11T03:07:46.262Z,0.00
2022-12-11T03:08:46.189Z,0.00
2022-12-11T03:09:46.169Z,0.00
2022-12-11T03:10:46.163Z,0.00
2022-12-11T03:11:46.137Z,0.00
2022-12-11T03:12:48.095Z,0.00
2022-12-11T03:13:47.106Z,0.00
2022-12-11T03:14:46.090Z,0.00
2022-12-11T03:15:46.117Z,0.00
2022-12-11T03:16:46.115Z,0.00
2022-12-11T03:17:46.106Z,0.00
2022-12-11T03:18:46.073Z,0.00
2022-12-11T03:19:46.046Z,0.00
2022-12-11T03:20:46.047Z,0.00
2022-12-11T03:21:46.038Z,0.00
2022-12-11T03:22:46.018Z,0.00
2022-12-11T03:23:46.011Z,0.00
2022-12-11T03:24:45.989Z,0.00
2022-12-11T03:25:45.987Z,0.00
2022-12-11T03:26:45.986Z,0.00
2022-12-11T03:27:45.966Z,0.00
2022-12-11T03:28:45.951Z,0.00
2022-12-11T03:29:45.946Z,0.00
2022-12-11T03:30:46.006Z,0.00
2022-12-11T03:31:45.937Z,0.00
2022-12-11T03:32:45.899Z,0.00
2022-12-11T03:33:45.898Z,0.00
2022-12-11T03:34:45.877Z,0.00
2022-12-11T03:35:45.877Z,0.00
2022-12-11T03:36:45.875Z,0.00
2022-12-11T03:37:45.874Z,0.00
2022-12-11T03:38:45.826Z,0.00
2022-12-11T03:39:45.826Z,0.00
2022-12-11T03:40:45.813Z,0.00
2022-12-11T03:41:45.806Z,0.00
2022-12-11T03:42:45.816Z,0.00
2022-12-11T03:43:45.807Z,0.00
2022-12-11T03:44:45.767Z,0.00
2022-12-11T03:45:45.820Z,0.00
2022-12-11T03:46:45.748Z,0.00
2022-12-11T03:47:45.754Z,0.00
2022-12-11T03:48:45.714Z,0.00
2022-12-11T03:49:45.738Z,0.00
2022-12-11T03:50:45.698Z,0.00
2022-12-11T03:51:45.707Z,0.00
2022-12-11T03:52:46.298Z,0.00
2022-12-11T03:53:45.695Z,0.00
2022-12-11T03:54:45.654Z,0.00
2022-12-11T03:55:45.671Z,0.00
2022-12-11T03:56:45.627Z,0.00
2022-12-11T03:57:45.635Z,0.00
2022-12-11T03:58:45.665Z,0.00
2022-12-11T03:59:45.615Z,0.00
2022-12-11T04:00:45.608Z,0.00
2022-12-11T04:01:45.645Z,0.00
2022-12-11T04:02:45.563Z,0.00
2022-12-11T04:03:45.678Z,0.00
2022-12-11T04:04:45.562Z,0.00
2022-12-11T04:05:45.548Z,0.00
2022-12-11T04:06:45.530Z,0.00
2022-12-11T04:07:45.584Z,0.00
2022-12-11T04:08:45.495Z,0.00
2022-12-11T04:09:45.537Z,0.00
2022-12-11T04:10:45.474Z,0.00
2022-12-11T04:11:45.462Z,0.00
2022-12-11T04:12:45.460Z,0.00
2022-12-11T04:13:45.443Z,0.00
2022-12-11T04:14:45.454Z,0.00
2022-12-11T04:15:45.475Z,0.00
2022-12-11T04:16:45.415Z,0.00
2022-12-11T04:17:45.403Z,0.00
2022-12-11T04:18:45.392Z,0.00
2022-12-11T04:19:45.391Z,0.00
2022-12-11T04:20:45.384Z,0.00
2022-12-11T04:21:45.383Z,0.00
2022-12-11T04:22:45.363Z,0.00
2022-12-11T04:23:45.337Z,0.00
2022-12-11T04:24:45.325Z,0.00
2022-12-11T04:25:45.338Z,0.00
2022-12-11T04:26:45.314Z,0.00
2022-12-11T04:27:45.316Z,0.00
2022-12-11T04:28:45.271Z,0.00
2022-12-11T04:29:45.271Z,0.00
2022-12-11T04:30:45.312Z,0.00
2022-12-11T04:31:45.292Z,0.00
2022-12-11T04:32:45.255Z,0.00
2022-12-11T04:33:45.222Z,0.00
2022-12-11T04:34:45.275Z,0.00
2022-12-11T04:35:45.206Z,0.00
2022-12-11T04:36:45.192Z,0.00
2022-12-11T04:37:45.195Z,0.00
2022-12-11T04:38:45.163Z,0.00
2022-12-11T04:39:45.171Z,0.00
2022-12-11T04:40:45.140Z,0.00
2022-12-11T04:41:45.143Z,0.00
2022-12-11T04:42:45.121Z,0.00
2022-12-11T04:43:45.168Z,0.00
2022-12-11T04:44:45.101Z,0.00
2022-12-11T04:45:45.111Z,0.00
2022-12-11T04:46:45.126Z,0.00
2022-12-11T04:47:45.115Z,0.00
2022-12-11T04:48:45.084Z,0.00
2022-12-11T04:49:45.055Z,0.00
2022-12-11T04:50:45.051Z,0.00
2022-12-11T04:51:45.032Z,0.00
2022-12-11T04:52:45.005Z,0.00
2022-12-11T04:53:45.024Z,0.00
2022-12-11T04:54:44.991Z,0.00
2022-12-11T04:55:44.991Z,0.00
2022-12-11T04:56:44.960Z,0.00
2022-12-11T04:57:44.960Z,0.00
2022-12-11T04:58:44.970Z,0.00
2022-12-11T04:59:44.980Z,0.00
2022-12-11T05:00:44.933Z,0.00
2022-12-11T05:01:44.969Z,0.00
2022-12-11T05:02:44.927Z,0.00
2022-12-11T05:03:44.900Z,0.00
2022-12-11T05:04:44.900Z,0.00
2022-12-11T05:05:44.891Z,0.00
2022-12-11T05:06:44.848Z,0.00
2022-12-11T05:07:44.898Z,0.00
2022-12-11T05:08:44.848Z,0.00
2022-12-11T05:09:44.829Z,0.00
2022-12-11T05:10:50.004Z,0.00
2022-12-11T05:11:45.812Z,0.00
2022-12-11T05:12:44.784Z,0.00
2022-12-11T05:13:44.794Z,0.00
2022-12-11T05:14:44.802Z,0.00
2022-12-11T05:15:44.837Z,0.00
2022-12-11T05:16:44.748Z,0.00
2022-12-11T05:17:44.733Z,0.00
2022-12-11T05:18:44.741Z,0.00
2022-12-11T05:19:44.749Z,0.00
2022-12-11T05:20:44.700Z,0.00
2022-12-11T05:21:44.701Z,0.00
2022-12-11T05:22:44.692Z,0.00
2022-12-11T05:23:44.680Z,0.00
2022-12-11T05:24:44.664Z,0.00
2022-12-11T05:25:44.720Z,0.00
2022-12-11T05:26:44.636Z,0.00
2022-12-11T05:27:44.629Z,0.00
2022-12-11T05:28:44.614Z,0.00
2022-12-11T05:29:44.609Z,0.00
2022-12-11T05:30:44.777Z,0.00
2022-12-11T05:31:44.619Z,0.00
2022-12-11T05:32:44.569Z,0.00
2022-12-11T05:33:44.569Z,0.00
2022-12-11T05:34:44.545Z,0.00
2022-12-11T05:35:44.536Z,0.00
2022-12-11T05:36:44.517Z,0.00
2022-12-11T05:37:44.516Z,0.00
2022-12-11T05:38:44.517Z,0.00
2022-12-11T05:39:44.516Z,0.00
2022-12-11T05:40:44.481Z,0.00
2022-12-11T05:41:44.472Z,0.00
2022-12-11T05:42:44.457Z,0.00
2022-12-11T05:43:44.468Z,0.00
2022-12-11T05:44:44.437Z,0.00
2022-12-11T05:45:44.445Z,0.00
2022-12-11T05:46:44.512Z,0.00
2022-12-11T05:47:44.413Z,0.00
2022-12-11T05:48:44.377Z,0.00
2022-12-11T05:49:44.436Z,0.00
2022-12-11T05:50:44.408Z,0.00
2022-12-11T05:51:44.371Z,0.00
2022-12-11T05:52:44.389Z,0.00
2022-12-11T05:53:44.336Z,0.00
2022-12-11T05:54:44.317Z,0.00
2022-12-11T05:55:44.316Z,0.00
2022-12-11T05:56:44.357Z,0.00
2022-12-11T05:57:44.301Z,0.00
2022-12-11T05:58:44.276Z,0.00
2022-12-11T05:59:44.317Z,0.00
2022-12-11T06:00:44.266Z,0.00
2022-12-11T06:01:44.421Z,0.00
2022-12-11T06:02:44.482Z,0.00
2022-12-11T06:03:44.241Z,0.00
2022-12-11T06:04:44.225Z,0.00
2022-12-11T06:05:44.214Z,0.00
2022-12-11T06:06:44.193Z,0.00
2022-12-11T06:07:44.295Z,0.00
2022-12-11T06:08:44.184Z,0.00
2022-12-11T06:09:44.170Z,0.00
2022-12-11T06:10:44.154Z,0.00
2022-12-11T06:11:44.153Z,0.00
2022-12-11T06:12:44.134Z,0.00
2022-12-11T06:13:44.124Z,0.00
2022-12-11T06:14:44.119Z,0.00
2022-12-11T06:15:44.187Z,0.00
2022-12-11T06:16:44.117Z,0.00
2022-12-11T06:17:44.085Z,0.00
2022-12-11T06:18:44.054Z,0.00
2022-12-11T06:19:44.065Z,0.00
2022-12-11T06:20:44.047Z,0.00
2022-12-11T06:21:44.055Z,0.00
2022-12-11T06:22:44.014Z,0.00
2022-12-11T06:23:44.666Z,0.00
2022-12-11T06:24:43.987Z,0.00
2022-12-11T06:25:43.986Z,0.00
2022-12-11T06:26:43.953Z,0.00
2022-12-11T06:27:43.993Z,0.00
2022-12-11T06:28:43.965Z,0.00
2022-12-11T06:29:43.941Z,0.00
2022-12-11T06:30:43.935Z,0.00
2022-12-11T06:31:44.003Z,0.00
2022-12-11T06:32:43.907Z,0.00
2022-12-11T06:33:43.906Z,0.00
2022-12-11T06:34:43.906Z,0.00
2022-12-11T06:35:43.873Z,0.00
2022-12-11T06:36:43.861Z,0.00
2022-12-11T06:37:43.854Z,0.00
2022-12-11T06:38:43.835Z,0.00
2022-12-11T06:39:43.988Z,0.00
2022-12-11T06:40:43.820Z,0.00
2022-12-11T06:41:43.818Z,0.00
2022-12-11T06:42:43.838Z,0.00
2022-12-11T06:43:43.794Z,0.00
2022-12-11T06:44:43.814Z,0.00
2022-12-11T06:45:43.861Z,0.00
2022-12-11T06:46:43.818Z,0.00
2022-12-11T06:47:43.774Z,0.00
2022-12-11T06:48:43.714Z,0.00
2022-12-11T06:49:43.717Z,0.00
2022-12-11T06:50:43.723Z,0.00
2022-12-11T06:51:43.695Z,0.00
2022-12-11T06:52:43.681Z,0.00
2022-12-11T06:53:43.672Z,0.00
2022-12-11T06:54:43.670Z,0.00
2022-12-11T06:55:43.670Z,0.00
2022-12-11T06:56:43.646Z,0.00
2022-12-11T06:57:43.634Z,0.00
2022-12-11T06:58:43.622Z,0.00
2022-12-11T06:59:43.604Z,0.00
2022-12-11T07:00:43.701Z,0.00
2022-12-11T07:01:43.582Z,0.00
2022-12-11T07:02:43.583Z,0.00
2022-12-11T07:03:43.562Z,4.00
2022-12-11T07:04:43.558Z,4.00
2022-12-11T07:05:43.543Z,4.00
2022-12-11T07:06:43.622Z,0.00
2022-12-11T07:07:43.569Z,0.00
2022-12-11T07:08:43.528Z,0.00
2022-12-11T07:09:43.496Z,4.00
2022-12-11T07:10:43.594Z,4.00
2022-12-11T07:11:43.471Z,0.00
2022-12-11T07:12:43.450Z,4.00
2022-12-11T07:13:43.449Z,4.00
2022-12-11T07:14:43.448Z,4.00
2022-12-11T07:15:43.418Z,4.00
2022-12-11T07:16:43.533Z,4.00
2022-12-11T07:17:43.396Z,4.00
2022-12-11T07:18:43.398Z,4.00
2022-12-11T07:19:43.381Z,4.00
2022-12-11T07:20:43.390Z,4.00
2022-12-11T07:21:43.375Z,8.00
2022-12-11T07:22:46.620Z,8.00
2022-12-11T07:23:43.359Z,4.00
2022-12-11T07:24:43.323Z,4.00
2022-12-11T07:25:43.331Z,4.00
2022-12-11T07:26:43.625Z,4.00
2022-12-11T07:27:43.296Z,8.00
2022-12-11T07:28:43.301Z,8.00
2022-12-11T07:29:43.282Z,8.00
2022-12-11T07:30:43.342Z,8.00
2022-12-11T07:31:43.315Z,8.00
2022-12-11T07:32:43.286Z,8.00
2022-12-11T07:33:43.287Z,8.00
2022-12-11T07:34:47.233Z,12.00
2022-12-11T07:35:44.189Z,12.00
2022-12-11T07:36:43.209Z,12.00
2022-12-11T07:37:43.186Z,12.00
2022-12-11T07:38:43.182Z,16.00
2022-12-11T07:39:43.154Z,12.00
2022-12-11T07:40:43.159Z,16.00
2022-12-11T07:41:43.155Z,16.00
2022-12-11T07:42:46.296Z,16.00
2022-12-11T07:43:43.117Z,16.00
2022-12-11T07:44:43.131Z,20.00
2022-12-11T07:45:43.144Z,20.00
2022-12-11T07:46:43.107Z,20.00
2022-12-11T07:47:43.059Z,20.00
2022-12-11T07:48:43.071Z,20.00
2022-12-11T07:49:43.059Z,24.00
2022-12-11T07:50:43.039Z,24.00
2022-12-11T07:51:43.039Z,24.00
2022-12-11T07:52:43.021Z,28.00
2022-12-11T07:53:43.021Z,28.00
2022-12-11T07:54:43.007Z,28.00
2022-12-11T07:55:42.987Z,28.00
2022-12-11T07:56:44.011Z,28.00
2022-12-11T07:57:42.976Z,24.00
2022-12-11T07:58:42.951Z,28.00
2022-12-11T07:59:42.949Z,28.00
2022-12-11T08:00:42.940Z,24.00
2022-12-11T08:01:42.927Z,28.00
2022-12-11T08:02:43.052Z,28.00
2022-12-11T08:03:42.896Z,32.00
2022-12-11T08:04:42.916Z,36.00
2022-12-11T08:05:42.879Z,36.00
2022-12-11T08:06:42.867Z,36.00
2022-12-11T08:07:42.853Z,40.00
2022-12-11T08:08:43.430Z,44.00
2022-12-11T08:09:42.819Z,52.00
2022-12-11T08:10:42.827Z,56.00
2022-12-11T08:11:42.819Z,60.00
2022-12-11T08:12:42.801Z,56.00
2022-12-11T08:13:42.791Z,60.00
2022-12-11T08:14:42.779Z,60.00
2022-12-11T08:15:42.765Z,56.00
2022-12-11T08:16:42.813Z,56.00
2022-12-11T08:17:42.757Z,60.00
2022-12-11T08:18:42.749Z,68.00
2022-12-11T08:19:42.742Z,76.00
2022-12-11T08:20:42.712Z,72.00
2022-12-11T08:21:42.698Z,68.00
2022-12-11T08:22:42.688Z,72.00
2022-12-11T08:23:42.683Z,76.00
2022-12-11T08:24:42.684Z,80.00
2022-12-11T08:25:42.648Z,84.00
2022-12-11T08:26:42.644Z,92.00
2022-12-11T08:27:42.628Z,100.00
2022-12-11T08:28:42.621Z,104.00
2022-12-11T08:29:42.648Z,108.00
2022-12-11T08:30:42.658Z,112.00
2022-12-11T08:31:42.584Z,112.00
2022-12-11T08:32:42.587Z,108.00
2022-12-11T08:33:42.545Z,108.00
2022-12-11T08:34:42.562Z,104.00
2022-12-11T08:35:42.598Z,104.00
2022-12-11T08:36:42.538Z,104.00
2022-12-11T08:37:42.525Z,108.00
2022-12-11T08:38:42.504Z,104.00
2022-12-11T08:39:42.510Z,108.00
2022-12-11T08:40:42.497Z,112.00
2022-12-11T08:41:42.506Z,116.00
2022-12-11T08:42:42.479Z,120.00
2022-12-11T08:43:42.439Z,124.00
2022-12-11T08:44:42.644Z,124.00
2022-12-11T08:45:42.493Z,124.00
2022-12-11T08:46:42.413Z,124.00
2022-12-11T08:47:42.416Z,128.00
2022-12-11T08:48:42.414Z,120.00
2022-12-11T08:49:42.406Z,120.00
2022-12-11T08:50:42.392Z,124.00
2022-12-11T08:51:42.417Z,132.00
2022-12-11T08:52:42.391Z,132.00
2022-12-11T08:53:42.332Z,132.00
2022-12-11T08:54:42.407Z,136.00
2022-12-11T08:55:42.405Z,140.00
2022-12-11T08:56:42.334Z,144.00
2022-12-11T08:57:42.306Z,148.00
2022-12-11T08:58:42.293Z,144.00
2022-12-11T08:59:42.266Z,140.00
2022-12-11T09:00:42.367Z,144.00
2022-12-11T09:01:42.309Z,156.00
2022-12-11T09:02:42.270Z,168.00
2022-12-11T09:03:42.246Z,176.00
2022-12-11T09:04:42.213Z,176.00
2022-12-11T09:05:42.208Z,176.00
2022-12-11T09:06:42.246Z,172.00
2022-12-11T09:07:42.187Z,164.00
2022-12-11T09:08:44.919Z,168.00
2022-12-11T09:09:43.154Z,176.00
2022-12-11T09:10:42.181Z,184.00
2022-12-11T09:11:42.145Z,192.00
2022-12-11T09:12:42.750Z,192.00
2022-12-11T09:13:42.102Z,188.00
2022-12-11T09:14:42.113Z,184.00
2022-12-11T09:15:42.141Z,176.00
2022-12-11T09:16:42.102Z,176.00
2022-12-11T09:17:42.061Z,176.00
2022-12-11T09:18:42.074Z,164.00
2022-12-11T09:19:42.057Z,156.00
2022-12-11T09:20:42.051Z,148.00
2022-12-11T09:21:42.059Z,148.00
2022-12-11T09:22:42.022Z,140.00
2022-12-11T09:23:42.000Z,140.00
2022-12-11T09:24:42.002Z,136.00
2022-12-11T09:25:41.977Z,132.00
2022-12-11T09:26:41.993Z,132.00
2022-12-11T09:27:41.962Z,132.00
2022-12-11T09:28:46.217Z,140.00
2022-12-11T09:29:42.933Z,148.00
2022-12-11T09:30:41.971Z,156.00
2022-12-11T09:31:41.913Z,156.00
2022-12-11T09:32:41.941Z,156.00
2022-12-11T09:33:41.892Z,160.00
2022-12-11T09:34:41.899Z,164.00
2022-12-11T09:35:41.872Z,164.00
2022-12-11T09:36:41.874Z,164.00
2022-12-11T09:37:41.861Z,164.00
2022-12-11T09:38:41.884Z,160.00
2022-12-11T09:39:41.819Z,164.00
2022-12-11T09:40:41.859Z,164.00
2022-12-11T09:41:41.807Z,160.00
2022-12-11T09:42:41.796Z,152.00
2022-12-11T09:43:41.816Z,140.00
2022-12-11T09:44:41.771Z,136.00
2022-12-11T09:45:41.739Z,132.00
2022-12-11T09:46:41.795Z,128.00
2022-12-11T09:47:41.741Z,124.00
2022-12-11T09:48:41.740Z,128.00
2022-12-11T09:49:41.708Z,136.00
2022-12-11T09:50:41.712Z,136.00
2022-12-11T09:51:41.700Z,140.00
2022-12-11T09:52:41.714Z,140.00
2022-12-11T09:53:41.664Z,144.00
2022-12-11T09:54:41.672Z,148.00
2022-12-11T09:55:41.648Z,160.00
2022-12-11T09:56:41.640Z,168.00
2022-12-11T09:57:41.642Z,180.00
2022-12-11T09:58:41.639Z,184.00
2022-12-11T09:59:41.672Z,184.00
2022-12-11T10:00:41.591Z,180.00
2022-12-11T10:01:41.620Z,180.00
2022-12-11T10:02:41.629Z,180.00
2022-12-11T10:03:41.560Z,176.00
2022-12-11T10:04:41.749Z,180.00
2022-12-11T10:05:41.536Z,180.00
2022-12-11T10:06:41.541Z,184.00
2022-12-11T10:07:41.521Z,180.00
2022-12-11T10:08:41.519Z,176.00
2022-12-11T10:09:41.502Z,176.00
2022-12-11T10:10:41.554Z,176.00
2022-12-11T10:11:41.641Z,172.00
2022-12-11T10:12:41.456Z,176.00
2022-12-11T10:13:41.441Z,176.00
2022-12-11T10:14:41.460Z,172.00
2022-12-11T10:15:41.468Z,164.00
2022-12-11T10:16:41.450Z,160.00
2022-12-11T10:17:41.402Z,156.00
2022-12-11T10:18:41.410Z,152.00
2022-12-11T10:19:41.410Z,152.00
2022-12-11T10:20:41.412Z,156.00
2022-12-11T10:21:41.368Z,156.00
2022-12-11T10:22:41.357Z,160.00
2022-12-11T10:23:41.330Z,156.00
2022-12-11T10:25:10.146Z,156.00
2022-12-11T10:25:42.314Z,160.00
2022-12-11T10:26:41.318Z,160.00
2022-12-11T10:27:41.291Z,160.00
2022-12-11T10:28:41.289Z,160.00
2022-12-11T10:29:41.257Z,160.00
2022-12-11T10:30:41.349Z,156.00
2022-12-11T10:31:41.258Z,152.00
2022-12-11T10:32:41.237Z,152.00
2022-12-11T10:33:41.230Z,156.00
2022-12-11T10:34:41.205Z,160.00
2022-12-11T10:35:41.209Z,172.00
2022-12-11T10:36:41.206Z,172.00
2022-12-11T10:37:41.169Z,176.00
2022-12-11T10:38:41.205Z,168.00
2022-12-11T10:39:41.147Z,164.00
2022-12-11T10:40:41.157Z,168.00
2022-12-11T10:41:41.165Z,172.00
2022-12-11T10:42:45.524Z,176.00
2022-12-11T10:43:41.113Z,188.00
2022-12-11T10:44:41.122Z,192.00
2022-12-11T10:45:41.121Z,196.00
2022-12-11T10:46:41.134Z,196.00
2022-12-11T10:47:41.058Z,192.00
2022-12-11T10:48:45.412Z,188.00
2022-12-11T10:49:41.037Z,184.00
2022-12-11T10:50:41.107Z,188.00
2022-12-11T10:51:41.034Z,192.00
2022-12-11T10:52:41.257Z,196.00
2022-12-11T10:53:40.999Z,196.00
2022-12-11T10:54:41.000Z,196.00
2022-12-11T10:55:40.986Z,196.00
2022-12-11T10:56:40.970Z,200.00
2022-12-11T10:57:40.945Z,204.00
2022-12-11T10:58:40.958Z,204.00
2022-12-11T10:59:40.945Z,200.00
2022-12-11T11:00:40.937Z,200.00
2022-12-11T11:01:40.964Z,200.00
2022-12-11T11:02:40.952Z,196.00
2022-12-11T11:03:40.874Z,196.00
2022-12-11T11:04:40.875Z,192.00
2022-12-11T11:05:44.939Z,196.00
2022-12-11T11:06:41.865Z,196.00
2022-12-11T11:07:40.867Z,188.00
2022-12-11T11:08:40.823Z,180.00
2022-12-11T11:09:40.824Z,180.00
2022-12-11T11:10:40.834Z,176.00
2022-12-11T11:11:40.805Z,180.00
2022-12-11T11:12:40.786Z,180.00
2022-12-11T11:13:40.774Z,176.00
2022-12-11T11:14:40.766Z,176.00
2022-12-11T11:15:40.792Z,172.00
2022-12-11T11:16:40.761Z,172.00
2022-12-11T11:17:51.123Z,172.00
2022-12-11T11:18:41.717Z,176.00
2022-12-11T11:19:40.724Z,184.00
2022-12-11T11:20:40.706Z,184.00
2022-12-11T11:21:40.694Z,188.00
2022-12-11T11:22:40.727Z,192.00
2022-12-11T11:23:45.473Z,196.00
2022-12-11T11:24:41.658Z,196.00
2022-12-11T11:25:40.654Z,192.00
2022-12-11T11:27:11.763Z,196.00
2022-12-11T11:27:41.615Z,192.00
2022-12-11T11:28:40.637Z,192.00
2022-12-11T11:29:40.612Z,192.00
2022-12-11T11:30:40.581Z,196.00
2022-12-11T11:31:40.611Z,200.00
2022-12-11T11:32:40.554Z,192.00
2022-12-11T11:33:40.554Z,188.00
2022-12-11T11:34:40.554Z,192.00
2022-12-11T11:35:45.599Z,192.00
2022-12-11T11:36:41.534Z,196.00
2022-12-11T11:37:40.521Z,196.00
2022-12-11T11:38:40.502Z,196.00
2022-12-11T11:39:40.493Z,196.00
2022-12-11T11:40:40.481Z,196.00
2022-12-11T11:41:40.484Z,204.00
2022-12-11T11:42:40.442Z,204.00
2022-12-11T11:43:40.443Z,204.00
2022-12-11T11:44:40.415Z,196.00
2022-12-11T11:45:40.422Z,196.00
2022-12-11T11:46:40.515Z,200.00
2022-12-11T11:47:40.431Z,204.00
2022-12-11T11:48:40.382Z,208.00
2022-12-11T11:49:40.375Z,212.00
2022-12-11T11:50:40.370Z,232.00
2022-12-11T11:51:40.351Z,244.00
2022-12-11T11:52:40.362Z,244.00
2022-12-11T11:53:40.339Z,252.00
2022-12-11T11:54:40.326Z,252.00
2022-12-11T11:55:40.316Z,248.00
2022-12-11T11:56:40.290Z,244.00
2022-12-11T11:57:40.291Z,236.00
2022-12-11T11:58:40.310Z,232.00
2022-12-11T11:59:40.283Z,220.00
2022-12-11T12:00:40.276Z,216.00
2022-12-11T12:01:40.292Z,200.00
2022-12-11T12:02:40.288Z,184.00
2022-12-11T12:03:40.366Z,180.00
2022-12-11T12:04:40.211Z,180.00
2022-12-11T12:05:40.212Z,180.00
2022-12-11T12:06:40.199Z,176.00
2022-12-11T12:07:40.187Z,172.00
2022-12-11T12:08:40.152Z,164.00
2022-12-11T12:09:40.228Z,164.00
2022-12-11T12:10:40.171Z,168.00
2022-12-11T12:11:40.131Z,176.00
2022-12-11T12:12:40.111Z,176.00
2022-12-11T12:13:55.367Z,168.00
2022-12-11T12:14:52.141Z,164.00
2022-12-11T12:15:41.090Z,160.00
2022-12-11T12:16:55.381Z,156.00
2022-12-11T12:17:41.080Z,152.00
2022-12-11T12:18:40.053Z,144.00
2022-12-11T12:19:40.071Z,140.00
2022-12-11T12:20:40.029Z,140.00
2022-12-11T12:21:40.026Z,136.00
2022-12-11T12:22:40.021Z,140.00
2022-12-11T12:23:40.005Z,144.00
2022-12-11T12:24:39.979Z,148.00
2022-12-11T12:25:39.991Z,148.00
2022-12-11T12:26:39.972Z,152.00
2022-12-11T12:27:55.276Z,160.00
2022-12-11T12:28:40.951Z,172.00
2022-12-11T12:29:39.951Z,184.00
2022-12-11T12:30:39.947Z,192.00
2022-12-11T12:31:40.026Z,196.00
2022-12-11T12:32:39.888Z,196.00
2022-12-11T12:33:39.879Z,200.00
2022-12-11T12:34:39.873Z,200.00
2022-12-11T12:35:39.875Z,196.00
2022-12-11T12:36:39.846Z,188.00
2022-12-11T12:37:39.840Z,180.00
2022-12-11T12:38:39.808Z,172.00
2022-12-11T12:39:39.841Z,156.00
2022-12-11T12:40:39.827Z,144.00
2022-12-11T12:41:39.828Z,132.00
2022-12-11T12:42:39.772Z,136.00
2022-12-11T12:43:39.828Z,140.00
2022-12-11T12:44:39.755Z,152.00
2022-12-11T12:45:39.810Z,160.00
2022-12-11T12:46:39.751Z,176.00
2022-12-11T12:47:39.740Z,184.00
2022-12-11T12:48:39.748Z,196.00
2022-12-11T12:49:39.699Z,200.00
2022-12-11T12:50:39.706Z,192.00
2022-12-11T12:51:39.688Z,184.00
2022-12-11T12:52:39.675Z,172.00
2022-12-11T12:53:39.667Z,160.00
2022-12-11T12:54:39.662Z,152.00
2022-12-11T12:55:39.636Z,148.00
2022-12-11T12:56:39.616Z,144.00
2022-12-11T12:57:39.634Z,144.00
2022-12-11T12:58:39.627Z,136.00